Lähimpiä lentokenttien sääasemia

 

EFHK - Helsinki/Vantaa, Finland
Ilmasuunta ja etäisyys Sääasema Bassenraitista: KO 24km
Päivitetty: 02/07/2022 11:20
Selkeätä
Selkeätä
 Tuulen suunta E
Tuuli: E 20 km/h
Lämpötila: 28°C
Lämpö indexi: 28°C
Kastepiste: 14°C
Kosteus: 42%
Ilmanpaine: 1018 hPa
Yhteenveto: Selkeätä
Näkyvyys: enemmän kuin 10 km
2022/07/02 08:20 EFHK 020820Z 18011KT CAVOK 28/14 Q1018 NOSIG
EETN - Tallinn, Estonia
Ilmasuunta ja etäisyys Sääasema Bassenraitista: E 89km
Päivitetty: 02/07/2022 11:20
Selkeätä
Selkeätä
 Tuulen suunta EKA
Tuuli: EKA 20 km/h
Lämpötila: 28°C
Lämpö indexi: 28°C
Kastepiste: 15°C
Kosteus: 45%
Ilmanpaine: 1018 hPa
Yhteenveto: Selkeätä
Näkyvyys: enemmän kuin 10 km
2022/07/02 08:20 EETN 020820Z 16011KT 130V200 CAVOK 28/15 Q1018 NOSIG
 
EFTU - Turku/Abo, Finland
Ilmasuunta ja etäisyys Sääasema Bassenraitista: LLU 133km
Päivitetty: 02/07/2022 11:20
Selkeätä
Selkeätä
 Tuulen suunta E
Tuuli: E 17 km/h
Lämpötila: 26°C
Kastepiste: 18°C
Kosteus: 61%
Ilmanpaine: 1016 hPa
Yhteenveto: Selkeätä
Näkyvyys: enemmän kuin 10 km
2022/07/02 08:20 EFTU 020820Z AUTO 17009KT 130V200 CAVOK 26/18 Q1016
EFTP - Tampere/Pirkkala, Finland
Ilmasuunta ja etäisyys Sääasema Bassenraitista: PLU 146km
Päivitetty: 02/07/2022 11:20
Heikkoa sadetta, Showers, Thunderstorm
Heikkoa sadetta, Showers, Thunderstorm
 Tuulen suunta KA
Tuuli: KA 13 km/h
Lämpötila: 22°C
Kastepiste: 17°C
Kosteus: 73%
Ilmanpaine: 1018 hPa
Yhteenveto: Heikkoa sadetta, Showers
Pilvet: Thunderstorm
Näkyvyys: 10 km
2022/07/02 08:20 EFTP 020820Z AUTO 13007KT 9999 -SHRA //////CB 22/17 Q1018
 
EFUT - Utti (fin-Afb), Finland
Ilmasuunta ja etäisyys Sääasema Bassenraitista: IKO 148km
Päivitetty: 02/07/2022 11:20
Selkeätä
Selkeätä
 Tuulen suunta KA
Tuuli: KA 11 km/h
Lämpötila: 27°C
Lämpö indexi: 27°C
Kastepiste: 13°C
Kosteus: 42%
Ilmanpaine: 1020 hPa
Yhteenveto: Selkeätä
Näkyvyys: enemmän kuin 10 km
2022/07/02 08:20 EFUT 020820Z AUTO 13006KT CAVOK 27/13 Q1020
EEKA - Kardla, Estonia
Ilmasuunta ja etäisyys Sääasema Bassenraitista: LO 168km
Päivitetty: 02/07/2022 10:50
Selkeätä
Selkeätä
 Tuulen suunta EKA
Tuuli: EKA 19 km/h
Lämpötila: 26°C
Kastepiste: 19°C
Kosteus: 65%
Ilmanpaine: 1016 hPa
Yhteenveto: Selkeätä
Näkyvyys: enemmän kuin 10 km
2022/07/02 07:50 EEKA 020750Z 15010KT 120V180 CAVOK 26/19 Q1016
 
EFHA - Halli (fin-Afb), Finland
Ilmasuunta ja etäisyys Sääasema Bassenraitista: P 184km
Päivitetty: 02/07/2022 11:20
Selkeätä
Selkeätä
 Tuulen suunta KA
Tuuli: KA 17 km/h
Lämpötila: 26°C
Kastepiste: 15°C
Kosteus: 51%
Ilmanpaine: 1018 hPa
Yhteenveto: Selkeätä
Näkyvyys: enemmän kuin 10 km
2022/07/02 08:20 EFHA 020820Z AUTO 14009KT CAVOK 26/15 Q1018
EEPU - Parnu, Estonia
Ilmasuunta ja etäisyys Sääasema Bassenraitista: E 198km
Päivitetty: 02/07/2022 11:20
Selkeätä
Selkeätä
 Tuulen suunta E
Tuuli: E 11 km/h
Lämpötila: 28°C
Lämpö indexi: 28°C
Kastepiste: 16°C
Kosteus: 48%
Ilmanpaine: 1018 hPa
Pilvet: Selkeätä
Näkyvyys: 10 km
2022/07/02 08:20 EEPU 020820Z AUTO 17006KT 130V220 9999 NCD 28/16 Q1018
 
EFPO - Pori (mil/Civ), Finland
Ilmasuunta ja etäisyys Sääasema Bassenraitista: LU 207km
Päivitetty: 02/07/2022 11:20
Selkeätä
Selkeätä
 Tuulen suunta KA
Tuuli: KA 22 km/h
Lämpötila: 26°C
Kastepiste: 19°C
Kosteus: 65%
Ilmanpaine: 1015 hPa
Yhteenveto: Selkeätä
Näkyvyys: enemmän kuin 10 km
2022/07/02 08:20 EFPO 020820Z AUTO 14012KT CAVOK 26/19 Q1015
EFLP - Lappeenranta, Finland
Ilmasuunta ja etäisyys Sääasema Bassenraitista: IKO 215km
Päivitetty: 02/07/2022 11:20
Selkeätä
Selkeätä
 Tuulen suunta KA
Tuuli: KA 9 km/h
Lämpötila: 28°C
Lämpö indexi: 28°C
Kastepiste: 14°C
Kosteus: 42%
Ilmanpaine: 1020 hPa
Yhteenveto: Selkeätä
Näkyvyys: enemmän kuin 10 km
2022/07/02 08:20 EFLP 020820Z 13005KT 070V230 CAVOK 28/14 Q1020
 
EFMI - Mikkeli, Finland
Ilmasuunta ja etäisyys Sääasema Bassenraitista: KO 217km
Päivitetty: 02/07/2022 11:20
Selkeätä
Selkeätä
 Tuulen suunta PKO
Tuuli: PKO 6 km/h
Lämpötila: 25°C
Kastepiste: 14°C
Kosteus: 51%
Ilmanpaine: 1020 hPa
Yhteenveto: Selkeätä
Näkyvyys: enemmän kuin 10 km
2022/07/02 08:20 EFMI 020820Z AUTO 03003KT 350V060 CAVOK 25/14 Q1020
EETU - Tartu, Estonia
Ilmasuunta ja etäisyys Sääasema Bassenraitista: EKA 240km
Päivitetty: 02/07/2022 11:20
Selkeätä
Selkeätä
 Tuulen suunta EKA
Tuuli: EKA 11 km/h
Lämpötila: 28°C
Lämpö indexi: 28°C
Kastepiste: 16°C
Kosteus: 48%
Ilmanpaine: 1019 hPa
Yhteenveto: Selkeätä
Näkyvyys: enemmän kuin 10 km
2022/07/02 08:20 EETU 020820Z 16006KT 120V210 CAVOK 28/16 Q1019
 
EEKE - Kuressaare, Estonia
Ilmasuunta ja etäisyys Sääasema Bassenraitista: ELO 249km
Päivitetty: 02/07/2022 11:20
Selkeätä
Selkeätä
 Tuulen suunta EKA
Tuuli: EKA 11 km/h
Lämpötila: 24°C
Kastepiste: 20°C
Kosteus: 78%
Ilmanpaine: 1017 hPa
Yhteenveto: Selkeätä
Näkyvyys: enemmän kuin 10 km
2022/07/02 08:20 EEKE 020820Z 15006KT 120V180 CAVOK 24/20 Q1017
EFJY - Jyvaskyla (mil/C, Finland
Ilmasuunta ja etäisyys Sääasema Bassenraitista: PKO 252km
Päivitetty: 02/07/2022 11:20
Selkeätä
Selkeätä
 Tuulen suunta EKA
Tuuli: EKA 17 km/h
Lämpötila: 26°C
Kastepiste: 15°C
Kosteus: 51%
Ilmanpaine: 1019 hPa
Yhteenveto: Selkeätä
Näkyvyys: enemmän kuin 10 km
2022/07/02 08:20 EFJY 020820Z AUTO 16009KT 120V200 CAVOK 26/15 Q1019
 
EFMA - Mariehamn/Aland, Finland
Ilmasuunta ja etäisyys Sääasema Bassenraitista: L 261km
Päivitetty: 02/07/2022 11:20
Selkeätä
Selkeätä
 Tuulen suunta E
Tuuli: E 30 km/h
Lämpötila: 22°C
Kastepiste: 19°C
Kosteus: 83%
Ilmanpaine: 1014 hPa
Yhteenveto: Selkeätä
Näkyvyys: enemmän kuin 10 km
2022/07/02 08:20 EFMA 020820Z AUTO 18016KT CAVOK 22/19 Q1014
EFSI - Seinajoki-Ilmajo, Finland
Ilmasuunta ja etäisyys Sääasema Bassenraitista: PLU 294km
Päivitetty: 02/07/2022 11:20
Selkeätä
Selkeätä
 Tuulen suunta KA
Tuuli: KA 24 km/h
Lämpötila: 24°C
Kastepiste: 19°C
Kosteus: 74%
Ilmanpaine: 1016 hPa
Yhteenveto: Selkeätä
Näkyvyys: enemmän kuin 10 km
2022/07/02 08:20 EFSI 020820Z AUTO 13013KT CAVOK 24/19 Q1016